Time;durP1;ratioP1;P1;durP2;ratioP2;P2;SDS_P1;SDS_P2;PMS_P1;PMS_P2;Temp;Humidity;BMP_temperature;BMP_pressure;BME280_temperature;BME280_humidity;BME280_pressure;Samples;Min_cycle;Max_cycle;Signal;HPM_P1;HPM_P2
2022/08/20 00:00:38;;;;;;;11.57;9.82;;;19.30;99.90;;;;;;5060988;28;20082;-59
2022/08/20 00:03:17;;;;;;;16.13;9.60;;;19.20;99.90;;;;;;5060190;28;20036;-60
2022/08/20 00:06:11;;;;;;;11.98;9.75;;;19.20;99.90;;;;;;5077603;28;20036;-61
2022/08/20 00:08:37;;;;;;;11.30;9.30;;;19.20;99.90;;;;;;5074771;28;20145;-62
2022/08/20 00:11:05;;;;;;;14.82;10.50;;;19.20;99.90;;;;;;5077897;28;20091;-62
2022/08/20 00:13:35;;;;;;;14.95;10.07;;;19.10;99.90;;;;;;5077378;28;20057;-60
2022/08/20 00:16:01;;;;;;;14.38;10.25;;;19.10;99.90;;;;;;5077437;28;20029;-60
2022/08/20 00:18:27;;;;;;;14.43;9.77;;;19.10;99.90;;;;;;5077876;28;20162;-61
2022/08/20 00:20:54;;;;;;;15.05;9.68;;;19.10;99.90;;;;;;5077306;28;20451;-61
2022/08/20 00:23:21;;;;;;;11.90;9.57;;;19.10;99.90;;;;;;5076765;28;20024;-59
2022/08/20 00:25:47;;;;;;;15.55;9.35;;;19.10;99.90;;;;;;5077242;28;20269;-61
2022/08/20 00:28:14;;;;;;;14.80;10.23;;;19.20;99.90;;;;;;5077219;28;20051;-61
2022/08/20 00:30:42;;;;;;;18.25;9.85;;;19.30;99.90;;;;;;5077128;28;20028;-60
2022/08/20 00:33:16;;;;;;;13.90;9.43;;;19.20;99.90;;;;;;5077035;28;20032;-60
2022/08/20 00:35:47;;;;;;;12.68;9.25;;;19.10;99.90;;;;;;5077603;28;20041;-61
2022/08/20 00:38:13;;;;;;;13.85;9.25;;;19.00;99.90;;;;;;5077060;28;20035;-62
2022/08/20 00:40:48;;;;;;;11.27;9.38;;;19.00;99.90;;;;;;5077098;28;20400;-61
2022/08/20 00:44:03;;;;;;;12.20;10.00;;;19.00;99.90;;;;;;5077090;28;20364;-61
2022/08/20 00:46:30;;;;;;;12.77;9.43;;;18.90;99.90;;;;;;5074378;28;20036;-60
2022/08/20 00:48:57;;;;;;;13.48;9.73;;;19.10;99.90;;;;;;5076943;28;20095;-60
2022/08/20 00:51:41;;;;;;;13.43;10.00;;;19.10;99.90;;;;;;5076959;28;20048;-60
2022/08/20 00:54:14;;;;;;;16.08;10.07;;;19.10;99.90;;;;;;5077065;28;20028;-62
2022/08/20 00:56:42;;;;;;;14.15;9.75;;;19.10;99.90;;;;;;5059627;28;20025;-61
2022/08/20 00:59:14;;;;;;;14.40;10.38;;;19.10;99.90;;;;;;5076835;28;20392;-60
2022/08/20 01:01:41;;;;;;;14.50;9.70;;;19.10;99.90;;;;;;5076829;28;20035;-62
2022/08/20 01:04:06;;;;;;;12.35;9.50;;;19.00;99.90;;;;;;5076830;28;20048;-60
2022/08/20 01:06:32;;;;;;;14.30;8.35;;;19.10;99.90;;;;;;5059401;28;20051;-61
2022/08/20 01:09:00;;;;;;;13.82;8.52;;;19.00;99.90;;;;;;5076624;28;20370;-60
2022/08/20 01:11:34;;;;;;;13.27;8.85;;;18.90;99.90;;;;;;5076721;28;20036;-61
2022/08/20 01:14:22;;;;;;;16.15;8.18;;;18.90;99.90;;;;;;5076701;28;20106;-61
2022/08/20 01:16:53;;;;;;;14.90;8.20;;;18.80;99.90;;;;;;5059281;28;20138;-60
2022/08/20 01:19:27;;;;;;;13.80;7.95;;;18.80;99.90;;;;;;5076711;28;20082;-61
2022/08/20 01:21:54;;;;;;;13.75;7.93;;;18.80;99.90;;;;;;5076953;28;20281;-61
2022/08/20 01:24:37;;;;;;;14.60;8.77;;;18.70;99.90;;;;;;5076681;28;20028;-61
2022/08/20 01:27:05;;;;;;;16.45;9.02;;;18.60;99.90;;;;;;5076617;28;20271;-60
2022/08/20 01:29:37;;;;;;;13.82;8.80;;;18.70;99.90;;;;;;5076548;28;20415;-61
2022/08/20 01:32:05;;;;;;;13.18;9.07;;;18.60;99.90;;;;;;5076806;28;20099;-61
2022/08/20 01:34:30;;;;;;;17.80;10.40;;;18.40;99.90;;;;;;5078171;28;20055;-62
2022/08/20 01:36:57;;;;;;;14.32;11.23;;;18.30;99.90;;;;;;5080474;28;20028;-62
2022/08/20 01:39:26;;;;;;;21.92;13.68;;;18.30;99.90;;;;;;5080378;28;20058;-61
2022/08/20 01:42:07;;;;;;;19.92;12.40;;;18.20;99.90;;;;;;5080875;28;20042;-60
2022/08/20 01:44:36;;;;;;;16.08;12.40;;;18.20;99.90;;;;;;5080344;28;20032;-62
2022/08/20 01:47:14;;;;;;;19.92;11.25;;;18.10;99.90;;;;;;5080444;28;20029;-61
2022/08/20 01:49:43;;;;;;;20.40;10.15;;;18.00;99.90;;;;;;5063152;28;20068;-60
2022/08/20 01:52:17;;;;;;;17.75;10.00;;;18.00;99.90;;;;;;5080109;28;20036;-60
2022/08/20 01:54:45;;;;;;;25.50;9.73;;;18.00;99.90;;;;;;5080290;28;20036;-60
2022/08/20 01:57:17;;;;;;;17.27;9.25;;;17.90;99.90;;;;;;5062794;28;20358;-60
2022/08/20 01:59:44;;;;;;;19.50;9.43;;;17.90;99.90;;;;;;5080213;28;20033;-61
2022/08/20 02:02:11;;;;;;;18.60;9.77;;;17.80;99.90;;;;;;5079943;28;20085;-62
2022/08/20 02:04:39;;;;;;;17.17;8.38;;;17.70;99.90;;;;;;5080214;28;20346;-61
2022/08/20 02:07:11;;;;;;;22.25;9.65;;;17.60;99.90;;;;;;5079930;28;20043;-62
2022/08/20 02:09:38;;;;;;;24.80;9.85;;;17.60;99.90;;;;;;5062243;28;20319;-61
2022/08/20 02:12:07;;;;;;;22.30;10.55;;;17.50;99.90;;;;;;5079716;28;20028;-59
2022/08/20 02:14:33;;;;;;;22.00;9.70;;;17.40;99.90;;;;;;5079970;28;20041;-61
2022/08/20 02:16:59;;;;;;;18.42;10.02;;;17.30;99.90;;;;;;5062377;28;20020;-62
2022/08/20 02:19:32;;;;;;;16.90;10.63;;;17.20;99.90;;;;;;5079688;28;20108;-62
2022/08/20 02:22:01;;;;;;;18.95;10.30;;;17.30;99.90;;;;;;5079659;28;20052;-60
2022/08/20 02:24:28;;;;;;;22.55;9.48;;;17.30;99.90;;;;;;5079559;28;20036;-61
2022/08/20 02:26:54;;;;;;;16.85;8.65;;;17.20;99.90;;;;;;5079806;28;20051;-61
2022/08/20 02:29:22;;;;;;;17.52;8.30;;;17.30;99.90;;;;;;5079449;28;20031;-61
2022/08/20 02:31:47;;;;;;;15.85;8.80;;;17.30;99.90;;;;;;5079448;28;20101;-61
2022/08/20 02:34:14;;;;;;;22.73;8.32;;;17.40;99.90;;;;;;5079330;28;20040;-61
2022/08/20 02:36:42;;;;;;;21.52;7.88;;;17.30;99.90;;;;;;5079393;28;20033;-61
2022/08/20 02:39:10;;;;;;;27.42;8.77;;;17.40;99.90;;;;;;5079289;28;20041;-61
2022/08/20 02:41:37;;;;;;;16.65;7.80;;;17.40;99.90;;;;;;5079258;28;20036;-61
2022/08/20 02:44:05;;;;;;;20.13;7.53;;;17.50;99.90;;;;;;5079186;28;20273;-61
2022/08/20 02:46:31;;;;;;;19.40;6.63;;;17.60;99.90;;;;;;5078698;28;20024;-61
2022/08/20 02:48:58;;;;;;;21.60;7.90;;;17.60;99.90;;;;;;5079175;28;20037;-61
2022/08/20 02:51:24;;;;;;;19.83;7.22;;;17.60;99.90;;;;;;5079099;28;20024;-61
2022/08/20 02:53:50;;;;;;;17.55;6.88;;;17.70;99.90;;;;;;5079219;28;20028;-61
2022/08/20 02:56:17;;;;;;;13.35;6.65;;;17.70;99.90;;;;;;5078990;28;20021;-61
2022/08/20 02:58:43;;;;;;;20.00;7.03;;;17.90;99.90;;;;;;5078931;28;20044;-61
2022/08/20 03:01:14;;;;;;;21.48;6.60;;;17.90;99.90;;;;;;5078940;28;20021;-61
2022/08/20 03:03:41;;;;;;;18.55;6.45;;;17.90;99.90;;;;;;5079366;28;20036;-62
2022/08/20 03:06:08;;;;;;;13.80;6.28;;;17.90;99.90;;;;;;5079248;28;20040;-62
2022/08/20 03:08:35;;;;;;;24.08;7.13;;;17.80;99.90;;;;;;5078578;28;20384;-62
2022/08/20 03:11:02;;;;;;;14.88;6.57;;;17.70;99.90;;;;;;5078731;28;20056;-62
2022/08/20 03:13:28;;;;;;;17.35;6.85;;;17.50;99.90;;;;;;5078906;28;20028;-62
2022/08/20 03:15:57;;;;;;;13.43;6.50;;;17.40;99.90;;;;;;5079156;28;20025;-62
2022/08/20 03:18:26;;;;;;;21.48;6.78;;;17.50;99.90;;;;;;5078558;28;20029;-63
2022/08/20 03:20:52;;;;;;;21.83;7.68;;;17.40;99.90;;;;;;5061344;28;20452;-62
2022/08/20 03:23:19;;;;;;;18.90;7.80;;;17.30;99.90;;;;;;5078457;28;20098;-61
2022/08/20 03:25:45;;;;;;;19.90;7.70;;;17.30;99.90;;;;;;5061125;28;20049;-61
2022/08/20 03:28:12;;;;;;;18.30;7.90;;;17.40;99.90;;;;;;5078346;28;20037;-61
2022/08/20 03:30:39;;;;;;;24.73;9.05;;;17.40;99.90;;;;;;5078335;28;20038;-61
2022/08/20 03:33:05;;;;;;;21.08;9.68;;;17.40;99.90;;;;;;5061379;28;20028;-61
2022/08/20 03:35:32;;;;;;;15.38;7.85;;;17.60;99.90;;;;;;5078224;28;20297;-61
2022/08/20 03:37:59;;;;;;;18.63;7.50;;;17.50;99.90;;;;;;5060779;28;20035;-61
2022/08/20 03:40:31;;;;;;;16.75;7.10;;;17.50;99.90;;;;;;5078091;28;20024;-61
2022/08/20 03:42:57;;;;;;;17.23;7.35;;;17.60;99.90;;;;;;5078009;28;20035;-61
2022/08/20 03:45:25;;;;;;;19.35;7.85;;;17.70;99.90;;;;;;5078037;28;20120;-61
2022/08/20 03:47:52;;;;;;;19.48;7.38;;;17.70;99.90;;;;;;5078533;28;20289;-61
2022/08/20 03:50:22;;;;;;;17.08;7.13;;;17.60;99.90;;;;;;5077951;28;20094;-61
2022/08/20 03:52:48;;;;;;;14.55;6.60;;;17.70;99.90;;;;;;5077805;28;20112;-62
2022/08/20 03:55:15;;;;;;;11.45;6.18;;;17.60;99.90;;;;;;5078084;28;20349;-62
2022/08/20 03:57:48;;;;;;;12.85;6.68;;;17.70;99.90;;;;;;5059836;28;20032;-62
2022/08/20 04:00:18;;;;;;;15.85;6.68;;;17.70;99.90;;;;;;5077849;28;20032;-62
2022/08/20 04:02:44;;;;;;;12.73;6.30;;;17.80;99.90;;;;;;5077800;28;20039;-62
2022/08/20 04:05:09;;;;;;;15.18;6.68;;;17.80;99.90;;;;;;5077779;28;20090;-62
2022/08/20 04:07:36;;;;;;;16.65;7.10;;;17.80;99.90;;;;;;5060340;28;20028;-61
2022/08/20 04:10:08;;;;;;;13.68;6.82;;;17.70;99.90;;;;;;5077475;28;20048;-63
2022/08/20 04:12:35;;;;;;;17.00;7.45;;;17.70;99.90;;;;;;5060180;28;20107;-62
2022/08/20 04:15:00;;;;;;;13.00;7.13;;;17.50;99.90;;;;;;5077416;28;20039;-62
2022/08/20 04:17:26;;;;;;;17.50;7.35;;;17.30;99.90;;;;;;5077395;28;20029;-61
2022/08/20 04:19:52;;;;;;;16.25;7.25;;;17.20;99.90;;;;;;5077570;28;20029;-62
2022/08/20 04:22:18;;;;;;;17.33;7.85;;;17.30;99.90;;;;;;5077616;28;20028;-62
2022/08/20 04:24:43;;;;;;;16.80;7.55;;;17.20;99.90;;;;;;5059967;28;20044;-61
2022/08/20 04:27:10;;;;;;;16.33;8.07;;;17.20;99.90;;;;;;5059979;28;20315;-62
2022/08/20 04:29:41;;;;;;;18.23;8.45;;;17.10;99.90;;;;;;5077288;28;20277;-61
2022/08/20 04:32:07;;;;;;;18.88;8.73;;;16.90;99.90;;;;;;5077231;28;20047;-62
2022/08/20 04:34:34;;;;;;;20.40;9.27;;;16.80;99.90;;;;;;5077138;28;20040;-62
2022/08/20 04:36:59;;;;;;;17.75;8.77;;;16.80;99.90;;;;;;5077408;28;20036;-62
2022/08/20 04:39:25;;;;;;;18.15;8.55;;;16.80;99.90;;;;;;5077248;28;20032;-61
2022/08/20 04:41:51;;;;;;;12.05;8.38;;;16.90;99.90;;;;;;5077459;28;20485;-62
2022/08/20 04:44:18;;;;;;;19.02;10.10;;;16.90;99.90;;;;;;5077083;28;20041;-62
2022/08/20 04:46:43;;;;;;;22.05;9.30;;;17.00;99.90;;;;;;5076984;28;20149;-61
2022/08/20 04:49:09;;;;;;;23.88;9.38;;;16.90;99.90;;;;;;5076915;28;20068;-61
2022/08/20 04:51:35;;;;;;;19.33;9.10;;;16.80;99.90;;;;;;5076969;28;20063;-61
2022/08/20 04:54:02;;;;;;;18.05;9.27;;;16.80;99.90;;;;;;5059185;28;20032;-61
2022/08/20 04:56:36;;;;;;;13.30;9.05;;;16.80;99.90;;;;;;5076692;28;20029;-63
2022/08/20 04:59:03;;;;;;;19.55;9.27;;;16.90;99.90;;;;;;5076725;28;20028;-61
2022/08/20 05:01:29;;;;;;;17.45;9.52;;;16.90;99.90;;;;;;5076724;28;20033;-61
2022/08/20 05:03:56;;;;;;;19.60;9.48;;;17.10;99.90;;;;;;5077084;28;20043;-62
2022/08/20 05:06:27;;;;;;;19.63;9.70;;;17.20;99.90;;;;;;5076845;28;20055;-64
2022/08/20 05:08:54;;;;;;;16.02;9.82;;;17.20;99.90;;;;;;5079504;28;20124;-62
2022/08/20 05:11:21;;;;;;;17.50;8.45;;;17.30;99.90;;;;;;5081019;28;20391;-62
2022/08/20 05:13:49;;;;;;;19.33;9.77;;;17.40;99.90;;;;;;5080881;28;20033;-63
2022/08/20 05:16:16;;;;;;;21.00;9.57;;;17.40;99.90;;;;;;5046926;28;20089;-62
2022/08/20 05:18:44;;;;;;;19.10;9.18;;;17.50;99.90;;;;;;5047229;28;20020;-60
2022/08/20 05:21:09;;;;;;;17.20;9.40;;;17.50;99.90;;;;;;5080823;28;20029;-61
2022/08/20 05:23:41;;;;;;;21.00;9.15;;;17.60;99.90;;;;;;5080741;28;20193;-61
2022/08/20 05:26:09;;;;;;;23.13;9.25;;;17.50;99.90;;;;;;5080737;28;20075;-61
2022/08/20 05:28:37;;;;;;;21.52;9.38;;;17.30;99.90;;;;;;5080641;28;20028;-61
2022/08/20 05:31:06;;;;;;;18.50;9.13;;;17.40;99.90;;;;;;5046530;28;20154;-61
2022/08/20 05:33:31;;;;;;;19.42;8.93;;;17.40;99.90;;;;;;5080493;28;20353;-61
2022/08/20 05:35:58;;;;;;;18.98;8.50;;;17.40;99.90;;;;;;5080542;28;20111;-62
2022/08/20 05:38:26;;;;;;;19.92;9.05;;;17.50;99.90;;;;;;5080266;28;20033;-61
2022/08/20 05:40:52;;;;;;;20.10;9.05;;;17.50;99.90;;;;;;5080375;28;20029;-61
2022/08/20 05:43:18;;;;;;;21.33;9.00;;;17.30;99.90;;;;;;5063066;28;20353;-61
2022/08/20 05:45:46;;;;;;;23.13;10.13;;;17.30;99.90;;;;;;5062952;28;20292;-62
2022/08/20 05:48:17;;;;;;;21.70;9.73;;;17.30;99.90;;;;;;5080261;28;20066;-62
2022/08/20 05:50:45;;;;;;;22.70;10.15;;;17.30;99.90;;;;;;5080209;28;20028;-61
2022/08/20 05:53:11;;;;;;;20.35;10.02;;;17.30;99.90;;;;;;5080083;28;20059;-61
2022/08/20 05:55:38;;;;;;;18.38;9.25;;;17.20;99.90;;;;;;5080111;28;20040;-61
2022/08/20 05:58:08;;;;;;;21.52;10.35;;;17.20;99.90;;;;;;5080079;28;20120;-61
2022/08/20 06:00:34;;;;;;;26.77;10.52;;;17.20;99.90;;;;;;5080007;28;20327;-60
2022/08/20 06:05:44;;;;;;;22.98;10.63;;;17.00;99.90;;;;;;5079980;28;20133;-61
2022/08/20 06:08:11;;;;;;;20.05;9.57;;;16.90;99.90;;;;;;5079882;28;20032;-62
2022/08/20 06:10:39;;;;;;;20.65;10.82;;;17.10;99.90;;;;;;5079814;28;20419;-61
2022/08/20 06:13:06;;;;;;;19.52;10.73;;;17.10;99.90;;;;;;5079640;28;20028;-62
2022/08/20 06:15:33;;;;;;;23.23;10.55;;;17.20;99.90;;;;;;5079659;28;20021;-62
2022/08/20 06:17:59;;;;;;;19.70;10.90;;;17.40;99.90;;;;;;5079720;28;20047;-62
2022/08/20 06:20:27;;;;;;;19.75;9.98;;;17.40;99.90;;;;;;5078699;28;20029;-61
2022/08/20 06:22:54;;;;;;;26.13;10.32;;;17.30;99.90;;;;;;5079833;28;20263;-62
2022/08/20 06:25:20;;;;;;;25.88;11.82;;;17.50;99.90;;;;;;5062349;28;20292;-62
2022/08/20 06:27:46;;;;;;;21.90;11.70;;;17.60;99.90;;;;;;5079821;28;20044;-62
2022/08/20 06:30:14;;;;;;;19.67;10.75;;;17.80;99.90;;;;;;5079491;28;20028;-63
2022/08/20 06:32:40;;;;;;;21.05;11.07;;;17.90;99.90;;;;;;5079446;28;20085;-62
2022/08/20 06:35:08;;;;;;;27.02;12.20;;;18.00;99.90;;;;;;5061859;28;20033;-62
2022/08/20 06:37:35;;;;;;;28.95;13.05;;;17.80;99.90;;;;;;5079336;28;20358;-62
2022/08/20 06:40:04;;;;;;;30.27;14.50;;;17.50;99.90;;;;;;5079439;28;20020;-61
2022/08/20 06:42:30;;;;;;;31.08;14.18;;;17.40;99.90;;;;;;5061818;28;20039;-61
2022/08/20 06:44:58;;;;;;;25.70;13.70;;;17.40;99.90;;;;;;5062062;28;20344;-62
2022/08/20 06:47:24;;;;;;;25.92;13.52;;;17.50;99.90;;;;;;5079340;28;20384;-61
2022/08/20 06:49:50;;;;;;;22.45;13.40;;;17.30;99.90;;;;;;5079102;28;20082;-61
2022/08/20 06:52:16;;;;;;;24.15;13.40;;;17.40;99.90;;;;;;5061586;28;20041;-62
2022/08/20 06:54:44;;;;;;;26.67;13.50;;;17.50;99.90;;;;;;5078935;28;20111;-62
2022/08/20 06:57:09;;;;;;;24.67;13.27;;;17.70;99.90;;;;;;5078945;28;20388;-62
2022/08/20 06:59:35;;;;;;;26.85;13.32;;;17.90;99.90;;;;;;5078793;28;20106;-63
2022/08/20 07:02:01;;;;;;;25.83;13.10;;;18.10;99.90;;;;;;5079156;28;20408;-62
2022/08/20 07:04:27;;;;;;;26.75;13.25;;;18.20;99.90;;;;;;5078814;28;20032;-63
2022/08/20 07:06:56;;;;;;;22.77;12.98;;;18.30;99.90;;;;;;5078817;28;20029;-62
2022/08/20 07:09:23;;;;;;;23.33;11.57;;;18.30;99.90;;;;;;5078760;28;20105;-62
2022/08/20 07:11:49;;;;;;;22.58;11.93;;;18.10;99.90;;;;;;5079196;28;20277;-62
2022/08/20 07:14:15;;;;;;;22.75;12.57;;;18.10;99.90;;;;;;5078598;28;20502;-62
2022/08/20 07:16:42;;;;;;;21.65;11.80;;;18.30;99.90;;;;;;5078639;28;20028;-62
2022/08/20 07:19:08;;;;;;;21.63;12.70;;;18.50;99.90;;;;;;5078534;28;20119;-63
2022/08/20 07:21:34;;;;;;;22.75;11.82;;;18.60;99.90;;;;;;5061122;28;20033;-62
2022/08/20 07:24:00;;;;;;;21.77;11.25;;;18.70;99.90;;;;;;5078897;28;20039;-62
2022/08/20 07:26:26;;;;;;;18.45;11.80;;;18.80;99.90;;;;;;5078428;28;20024;-62
2022/08/20 07:28:53;;;;;;;20.63;11.35;;;18.80;99.90;;;;;;5078367;28;20051;-63
2022/08/20 07:34:04;;;;;;;21.65;11.35;;;19.00;99.90;;;;;;5078234;28;20036;-63
2022/08/20 07:36:31;;;;;;;22.05;11.27;;;19.00;99.90;;;;;;5078482;28;20106;-63
2022/08/20 07:38:57;;;;;;;19.90;10.85;;;19.00;99.90;;;;;;5078221;28;20024;-63
2022/08/20 07:41:23;;;;;;;17.73;10.98;;;19.10;99.90;;;;;;5061414;28;20458;-63
2022/08/20 07:43:49;;;;;;;23.05;11.32;;;19.20;99.90;;;;;;5077931;28;20032;-63
2022/08/20 07:46:17;;;;;;;19.55;10.38;;;19.40;99.90;;;;;;5077995;28;20051;-64
2022/08/20 07:48:45;;;;;;;17.83;10.10;;;19.50;99.90;;;;;;5060613;28;20028;-62
2022/08/20 07:51:12;;;;;;;21.83;10.30;;;19.60;99.90;;;;;;5078206;28;20444;-62
2022/08/20 07:53:39;;;;;;;17.58;9.00;;;19.50;99.90;;;;;;5077747;28;20273;-62
2022/08/20 07:56:08;;;;;;;16.15;9.43;;;19.60;99.90;;;;;;5078380;28;20032;-63
2022/08/20 07:58:37;;;;;;;18.23;9.80;;;19.60;99.90;;;;;;5077694;28;20164;-63
2022/08/20 08:01:07;;;;;;;18.42;10.13;;;19.90;99.90;;;;;;5078173;28;20028;-64
2022/08/20 08:03:33;;;;;;;15.48;9.43;;;20.00;99.90;;;;;;5077595;28;20297;-63
2022/08/20 08:05:59;;;;;;;19.25;9.02;;;20.20;99.90;;;;;;5060495;28;20047;-62
2022/08/20 08:08:27;;;;;;;18.00;9.50;;;20.10;99.90;;;;;;5077428;28;20032;-63
2022/08/20 08:10:58;;;;;;;19.00;9.95;;;20.00;99.90;;;;;;5077277;28;20082;-64
2022/08/20 08:13:31;;;;;;;14.40;8.43;;;20.10;99.90;;;;;;5077558;28;20345;-63
2022/08/20 08:15:58;;;;;;;15.75;8.55;;;20.00;99.90;;;;;;5077377;28;20089;-63
2022/08/20 08:18:30;;;;;;;21.05;9.35;;;20.00;99.90;;;;;;5077392;28;20103;-60
2022/08/20 08:20:56;;;;;;;18.15;8.88;;;20.30;99.90;;;;;;5077478;28;20048;-63
2022/08/20 08:23:23;;;;;;;15.05;7.30;;;20.60;99.90;;;;;;5077582;28;20024;-62
2022/08/20 08:25:50;;;;;;;14.57;6.70;;;20.80;99.90;;;;;;5077328;28;20043;-64
2022/08/20 08:28:17;;;;;;;15.98;6.55;;;21.10;99.90;;;;;;5077176;28;20415;-64
2022/08/20 08:30:45;;;;;;;15.77;6.43;;;21.10;99.90;;;;;;5077103;28;20035;-64
2022/08/20 08:33:28;;;;;;;10.52;4.90;;;21.10;99.90;;;;;;5077379;28;20304;-64
2022/08/20 08:36:09;;;;;;;14.07;7.40;;;21.10;99.90;;;;;;5060497;28;20270;-64
2022/08/20 08:38:38;;;;;;;12.88;6.22;;;21.10;99.90;;;;;;5059659;28;20029;-65
2022/08/20 08:41:17;;;;;;;10.50;5.28;;;21.10;99.90;;;;;;5077119;28;20032;-63
2022/08/20 08:43:46;;;;;;;10.68;3.90;;;21.20;99.90;;;;;;5076729;28;20047;-64
2022/08/20 08:46:16;;;;;;;13.93;5.20;;;21.30;99.90;;;;;;5059810;28;20033;-62
2022/08/20 08:48:46;;;;;;;13.02;4.20;;;21.30;99.90;;;;;;5077040;28;20458;-64
2022/08/20 08:51:21;;;;;;;11.45;3.95;;;21.40;99.90;;;;;;5077027;28;20036;-62
2022/08/20 08:53:54;;;;;;;9.43;3.95;;;21.60;99.90;;;;;;5059901;28;20391;-61
2022/08/20 08:56:25;;;;;;;9.45;3.03;;;22.00;99.90;;;;;;5077012;28;20043;-62
2022/08/20 08:58:57;;;;;;;11.23;3.22;;;22.10;99.90;;;;;;5077132;28;20273;-63
2022/08/20 09:01:24;;;;;;;9.53;2.80;;;22.00;99.90;;;;;;5076967;28;20119;-63
2022/08/20 09:03:50;;;;;;;5.75;2.58;;;22.10;99.90;;;;;;5076778;28;20304;-62
2022/08/20 09:06:21;;;;;;;11.13;3.10;;;22.30;99.90;;;;;;5076863;28;20332;-64
2022/08/20 09:08:50;;;;;;;9.25;3.20;;;22.50;99.90;;;;;;5076639;28;20079;-64
2022/08/20 09:11:17;;;;;;;9.95;2.88;;;22.40;99.90;;;;;;5076819;28;20361;-63
2022/08/20 09:13:43;;;;;;;7.47;2.53;;;22.30;99.90;;;;;;5076617;28;20037;-62
2022/08/20 09:16:11;;;;;;;7.90;2.17;;;22.10;99.90;;;;;;5076774;28;20051;-64
2022/08/20 09:18:37;;;;;;;13.15;2.17;;;22.20;99.90;;;;;;5076711;28;20031;-63
2022/08/20 09:21:03;;;;;;;9.88;2.17;;;22.50;99.90;;;;;;5059232;28;20024;-63
2022/08/20 09:23:29;;;;;;;7.65;1.55;;;22.40;99.90;;;;;;5059189;28;20032;-62
2022/08/20 09:25:55;;;;;;;8.95;1.80;;;22.30;99.90;;;;;;5077234;28;20032;-64
2022/08/20 09:28:21;;;;;;;7.82;1.77;;;22.20;99.90;;;;;;5076921;28;20166;-63
2022/08/20 09:30:46;;;;;;;9.85;2.20;;;22.40;99.90;;;;;;5076662;28;20033;-61
2022/08/20 09:33:12;;;;;;;13.68;2.33;;;22.60;99.90;;;;;;5076465;28;20104;-62
2022/08/20 09:35:39;;;;;;;8.85;2.53;;;22.70;99.90;;;;;;5076615;28;20112;-61
2022/08/20 09:38:06;;;;;;;5.90;1.60;;;22.90;99.90;;;;;;5076514;28;20037;-62
2022/08/20 09:40:32;;;;;;;10.75;2.20;;;22.60;99.90;;;;;;5076516;28;20331;-60
2022/08/20 09:42:57;;;;;;;11.43;2.10;;;22.70;99.90;;;;;;5059038;28;20033;-61
2022/08/20 09:45:23;;;;;;;6.60;1.73;;;22.90;99.90;;;;;;5076460;28;20382;-62
2022/08/20 09:47:49;;;;;;;8.75;1.90;;;23.30;99.90;;;;;;5058839;28;20047;-63
2022/08/20 09:50:15;;;;;;;7.88;2.25;;;23.40;99.90;;;;;;5076501;28;20033;-61
2022/08/20 09:52:45;;;;;;;8.90;2.13;;;23.40;99.90;;;;;;5076261;28;20040;-62
2022/08/20 09:55:30;;;;;;;9.88;1.85;;;23.70;99.90;;;;;;5077403;28;20127;-62
2022/08/20 09:57:57;;;;;;;6.00;1.80;;;23.90;99.90;;;;;;5080184;28;20046;-61
2022/08/20 10:00:24;;;;;;;8.43;1.90;;;24.10;99.90;;;;;;5080366;28;20427;-60
2022/08/20 10:02:49;;;;;;;8.25;1.50;;;24.20;99.90;;;;;;5046133;28;20025;-59
2022/08/20 10:05:15;;;;;;;6.20;1.60;;;24.40;99.90;;;;;;5079969;28;20029;-61
2022/08/20 10:07:42;;;;;;;5.63;1.73;;;24.60;99.90;;;;;;5079904;28;20024;-60
2022/08/20 10:10:12;;;;;;;7.72;1.70;;;25.00;99.90;;;;;;5079765;28;20067;-61
2022/08/20 10:12:40;;;;;;;9.35;1.77;;;25.00;99.90;;;;;;5062453;28;20041;-61
2022/08/20 10:15:06;;;;;;;8.57;2.00;;;25.30;99.90;;;;;;5062360;28;20059;-59
2022/08/20 10:17:35;;;;;;;9.93;2.03;;;25.50;99.90;;;;;;5079749;28;20033;-61
2022/08/20 10:20:01;;;;;;;10.68;2.05;;;25.60;99.90;;;;;;5079856;28;20020;-60
2022/08/20 10:22:26;;;;;;;6.75;2.33;;;25.00;99.90;;;;;;5079624;28;20039;-61
2022/08/20 10:24:52;;;;;;;8.80;2.10;;;25.10;99.90;;;;;;5079562;28;20106;-61
2022/08/20 10:27:18;;;;;;;7.03;2.03;;;25.00;99.90;;;;;;5079534;28;20281;-60
2022/08/20 10:29:44;;;;;;;8.18;1.83;;;25.20;99.90;;;;;;5079551;28;20040;-59
2022/08/20 10:32:13;;;;;;;4.72;1.90;;;25.20;99.90;;;;;;5079455;28;20127;-60
2022/08/20 10:34:40;;;;;;;6.40;1.70;;;24.90;99.90;;;;;;5079274;28;20039;-59
2022/08/20 10:37:06;;;;;;;7.47;2.38;;;24.30;99.90;;;;;;5079279;28;20025;-60
2022/08/20 10:39:32;;;;;;;6.55;1.80;;;24.10;99.90;;;;;;5079573;28;20329;-60
2022/08/20 10:41:58;;;;;;;6.20;1.80;;;24.10;99.90;;;;;;5079316;28;20139;-61
2022/08/20 10:44:24;;;;;;;6.93;1.90;;;24.10;99.90;;;;;;5062236;28;20032;-58
2022/08/20 10:46:49;;;;;;;22.42;2.70;;;24.40;99.90;;;;;;5079124;28;20029;-58
2022/08/20 10:49:15;;;;;;;5.90;1.60;;;25.00;99.90;;;;;;5079271;28;20097;-59
2022/08/20 10:51:41;;;;;;;7.30;2.08;;;25.30;99.90;;;;;;5079117;28;20063;-58
2022/08/20 10:54:07;;;;;;;11.57;2.20;;;25.40;99.90;;;;;;5061539;28;20102;-59
2022/08/20 10:56:32;;;;;;;7.82;2.10;;;25.40;99.90;;;;;;5079095;28;20414;-59
2022/08/20 10:58:58;;;;;;;9.30;2.47;;;24.80;99.90;;;;;;5078967;28;20054;-59
2022/08/20 11:01:24;;;;;;;7.95;2.20;;;24.30;99.90;;;;;;5061480;28;20044;-59
2022/08/20 11:03:50;;;;;;;5.20;1.92;;;24.20;99.90;;;;;;5078837;28;20029;-59
2022/08/20 11:06:15;;;;;;;9.85;2.30;;;24.40;99.90;;;;;;5079087;28;20036;-60
2022/08/20 11:08:41;;;;;;;4.90;2.00;;;24.20;99.90;;;;;;5078629;28;20412;-60
2022/08/20 11:11:07;;;;;;;7.97;2.03;;;24.50;99.90;;;;;;5079062;28;20403;-60
2022/08/20 11:13:34;;;;;;;4.78;1.73;;;25.40;99.90;;;;;;5078548;28;20336;-61
2022/08/20 11:16:01;;;;;;;5.32;1.63;;;26.10;99.90;;;;;;5078676;28;20029;-60
2022/08/20 11:18:28;;;;;;;9.73;1.98;;;27.30;99.90;;;;;;5078560;28;20017;-60
2022/08/20 11:20:54;;;;;;;8.10;2.10;;;27.60;99.90;;;;;;5079171;28;20446;-59
2022/08/20 11:23:20;;;;;;;9.43;1.92;;;28.20;99.80;;;;;;5078458;28;20075;-60
2022/08/20 11:25:46;;;;;;;7.05;1.70;;;28.30;98.80;;;;;;5078452;28;20064;-59
2022/08/20 11:28:13;;;;;;;5.55;1.60;;;28.90;95.50;;;;;;5060808;28;20407;-59
2022/08/20 11:30:38;;;;;;;4.32;1.63;;;29.30;94.70;;;;;;5061121;28;20116;-59
2022/08/20 11:33:04;;;;;;;8.05;1.77;;;30.00;92.10;;;;;;5078200;28;20175;-59
2022/08/20 11:35:33;;;;;;;8.27;1.70;;;29.70;90.90;;;;;;5078243;28;20067;-60
2022/08/20 11:37:59;;;;;;;6.10;1.90;;;31.00;89.00;;;;;;5078223;28;20040;-60
2022/08/20 11:40:27;;;;;;;5.50;1.80;;;31.60;87.00;;;;;;5060876;28;20064;-60
2022/08/20 11:42:53;;;;;;;6.30;1.90;;;30.60;88.90;;;;;;5078098;28;20031;-59
2022/08/20 11:45:18;;;;;;;6.00;2.25;;;30.20;86.80;;;;;;5078112;28;20028;-59
2022/08/20 11:47:44;;;;;;;4.35;1.67;;;29.30;91.50;;;;;;5077978;28;20024;-59
2022/08/20 11:50:16;;;;;;;6.05;1.90;;;29.10;92.20;;;;;;5078000;28;20111;-58
2022/08/20 11:52:42;;;;;;;5.95;1.83;;;30.00;87.80;;;;;;5078339;28;20036;-58
2022/08/20 11:55:11;;;;;;;5.47;2.08;;;30.30;83.40;;;;;;5077804;28;20093;-59
2022/08/20 11:57:40;;;;;;;4.53;2.00;;;30.30;83.00;;;;;;5077770;28;20039;-59
2022/08/20 12:00:11;;;;;;;7.97;2.13;;;31.40;79.50;;;;;;5077684;28;20127;-58
2022/08/20 12:02:37;;;;;;;5.57;2.00;;;31.70;77.90;;;;;;5077960;28;20036;-59
2022/08/20 12:05:03;;;;;;;6.32;1.88;;;31.60;77.90;;;;;;5060268;28;20037;-59
2022/08/20 12:07:30;;;;;;;8.27;2.10;;;31.80;78.20;;;;;;5078010;28;20048;-59
2022/08/20 12:09:56;;;;;;;7.75;2.05;;;31.20;78.40;;;;;;5060086;28;20059;-59
2022/08/20 12:12:23;;;;;;;4.25;2.08;;;30.70;80.80;;;;;;5060321;28;20021;-59
2022/08/20 12:14:53;;;;;;;4.07;1.98;;;31.30;79.20;;;;;;5077396;28;20452;-59
2022/08/20 12:17:25;;;;;;;5.53;2.03;;;31.40;76.00;;;;;;5076891;28;20043;-60
2022/08/20 12:19:53;;;;;;;7.28;2.00;;;30.90;77.20;;;;;;5077704;28;20302;-60
2022/08/20 12:22:19;;;;;;;5.07;1.45;;;30.80;78.50;;;;;;5077382;28;20434;-59
2022/08/20 12:24:45;;;;;;;5.13;1.70;;;31.60;77.70;;;;;;5077350;28;20037;-65
2022/08/20 12:27:16;;;;;;;6.07;1.60;;;33.30;70.50;;;;;;5077747;28;20044;-59
2022/08/20 12:29:44;;;;;;;3.45;1.50;;;32.40;71.30;;;;;;5077226;28;20032;-60
2022/08/20 12:32:11;;;;;;;4.22;1.70;;;32.70;70.10;;;;;;5059933;28;20040;-60
2022/08/20 12:34:38;;;;;;;5.05;1.40;;;33.40;68.10;;;;;;5077071;28;20024;-61
2022/08/20 12:37:08;;;;;;;5.65;1.38;;;32.40;68.50;;;;;;5077153;28;20033;-63
2022/08/20 12:39:40;;;;;;;5.72;1.60;;;31.30;69.50;;;;;;5077189;28;20036;-59
2022/08/20 12:42:07;;;;;;;4.20;1.58;;;30.30;73.50;;;;;;5077335;28;20051;-59
2022/08/20 12:44:34;;;;;;;3.63;1.35;;;29.90;75.50;;;;;;5059668;28;20119;-60
2022/08/20 12:47:11;;;;;;;4.60;1.70;;;29.20;76.90;;;;;;5076983;28;20021;-60